AWC955 SBSP-SBRJ
Flight info
| Callsign | AWC955 |
|---|---|
| Flight time | N/A |
| Altitude | 23000 |
| Route | NIBRU UZ171 KEVUN |
| Aircraft | A320/M-SDE3FGHIRWY/LB1 |
Departure
| Time | N/A |
|---|---|
| Airport | Congonhas–Deputado Freitas Nobre Airport (SBSP) |
Arrival
| Time | 2026-05-03 21:42 |
|---|---|
| Airport | Santos Dumont Airport (SBRJ) |
| Time | Latitude | Longitude | Altitude | Speed | Heading |
|---|---|---|---|---|---|
| 2026-05-03 21:34 | -22.93395 | -43.47604 | 5523 ft | 280 kts | 67° |
| 2026-05-03 21:34 | -22.92590 | -43.45690 | 5231 ft | 278 kts | 67° |
| 2026-05-03 21:34 | -22.91789 | -43.43782 | 4924 ft | 276 kts | 68° |
| 2026-05-03 21:35 | -22.91004 | -43.41910 | 4644 ft | 274 kts | 67° |
| 2026-05-03 21:35 | -22.90217 | -43.40044 | 4408 ft | 270 kts | 68° |
| 2026-05-03 21:35 | -22.89433 | -43.38192 | 4168 ft | 261 kts | 68° |
| 2026-05-03 21:35 | -22.88922 | -43.37038 | 4020 ft | 249 kts | 62° |
| 2026-05-03 21:36 | -22.88236 | -43.35540 | 3814 ft | 232 kts | 79° |
| 2026-05-03 21:36 | -22.88165 | -43.33878 | 3631 ft | 213 kts | 99° |
| 2026-05-03 21:36 | -22.88302 | -43.32346 | 3501 ft | 197 kts | 97° |
| 2026-05-03 21:36 | -22.88382 | -43.30889 | 3296 ft | 190 kts | 96° |
| 2026-05-03 21:37 | -22.88441 | -43.29480 | 3125 ft | 182 kts | 95° |
| 2026-05-03 21:37 | -22.88491 | -43.28139 | 2925 ft | 176 kts | 95° |
| 2026-05-03 21:37 | -22.88542 | -43.26841 | 2762 ft | 168 kts | 99° |
| 2026-05-03 21:37 | -22.88833 | -43.25668 | 2594 ft | 157 kts | 116° |
| 2026-05-03 21:38 | -22.89237 | -43.24607 | 2431 ft | 147 kts | 115° |
| 2026-05-03 21:38 | -22.89616 | -43.23593 | 2234 ft | 144 kts | 115° |
| 2026-05-03 21:38 | -22.89990 | -43.22588 | 2054 ft | 143 kts | 115° |
| 2026-05-03 21:38 | -22.90356 | -43.21604 | 1879 ft | 142 kts | 115° |
| 2026-05-03 21:39 | -22.90775 | -43.20811 | 1724 ft | 140 kts | 130° |
| 2026-05-03 21:39 | -22.91468 | -43.20078 | 1550 ft | 138 kts | 146° |
| 2026-05-03 21:39 | -22.92192 | -43.19644 | 1399 ft | 137 kts | 160° |
| 2026-05-03 21:39 | -22.93105 | -43.19400 | 1240 ft | 137 kts | 175° |
| 2026-05-03 21:40 | -22.94015 | -43.19117 | 1056 ft | 138 kts | 148° |
| 2026-05-03 21:40 | -22.94604 | -43.18302 | 880 ft | 142 kts | 110° |
| 2026-05-03 21:40 | -22.94682 | -43.17829 | 808 ft | 142 kts | 92° |
| 2026-05-03 21:40 | -22.94589 | -43.17183 | 649 ft | 148 kts | 68° |
| 2026-05-03 21:41 | -22.94170 | -43.16543 | 520 ft | 144 kts | 39° |
| 2026-05-03 21:41 | -22.93270 | -43.16123 | 361 ft | 141 kts | 5° |
| 2026-05-03 21:41 | -22.92283 | -43.16182 | 219 ft | 144 kts | 354° |
| 2026-05-03 21:41 | -22.91628 | -43.16239 | 49 ft | 140 kts | 355° |
| 2026-05-03 21:42 | -22.90693 | -43.16303 | 25 ft | 77 kts | 355° |
| 2026-05-03 21:42 | -22.90524 | -43.16321 | 18 ft | 4 kts | 354° |
| 2026-05-03 21:42 | -22.90505 | -43.16328 | 26 ft | 9 kts | 329° |
| 2026-05-03 21:42 | -22.90492 | -43.16400 | 24 ft | 6 kts | 268° |
| 2026-05-03 21:43 | -22.90495 | -43.16459 | 23 ft | 10 kts | 266° |
| 2026-05-03 21:43 | -22.90499 | -43.16526 | 22 ft | 9 kts | 266° |
| 2026-05-03 21:43 | -22.90549 | -43.16555 | 22 ft | 10 kts | 175° |
| 2026-05-03 21:43 | -22.90627 | -43.16551 | 22 ft | 12 kts | 179° |
| 2026-05-03 21:44 | -22.90721 | -43.16545 | 22 ft | 15 kts | 175° |
| 2026-05-03 21:44 | -22.90830 | -43.16547 | 22 ft | 17 kts | 192° |
| 2026-05-03 21:44 | -22.90921 | -43.16545 | 22 ft | 4 kts | 177° |
| 2026-05-03 21:44 | -22.90941 | -43.16544 | 24 ft | 5 kts | 177° |
| 2026-05-03 21:45 | -22.90986 | -43.16541 | 22 ft | 8 kts | 176° |
| 2026-05-03 21:45 | -22.91068 | -43.16534 | 22 ft | 10 kts | 175° |
| 2026-05-03 21:45 | -22.91140 | -43.16519 | 24 ft | 8 kts | 174° |
| 2026-05-03 21:45 | -22.91200 | -43.16521 | 22 ft | 7 kts | 218° |
| 2026-05-03 21:46 | -22.91208 | -43.16572 | 22 ft | 2 kts | 267° |
| 2026-05-03 21:46 | -22.91209 | -43.16581 | 22 ft | 2 kts | 265° |
| 2026-05-03 21:46 | -22.91209 | -43.16584 | 22 ft | 0 kts | 265° |